createdAt,value
2019-02-21T00:01:24.262Z,4.90
2019-02-21T00:03:52.666Z,4.90
2019-02-21T00:06:21.070Z,4.80
2019-02-21T00:08:49.505Z,4.80
2019-02-21T00:11:17.902Z,4.80
2019-02-21T00:13:46.309Z,4.80
2019-02-21T00:16:14.728Z,4.80
2019-02-21T00:18:43.139Z,4.80
2019-02-21T00:21:11.613Z,4.80
2019-02-21T00:23:40.050Z,4.90
2019-02-21T00:26:08.617Z,4.80
2019-02-21T00:28:37.537Z,4.80
2019-02-21T00:31:05.999Z,4.80
2019-02-21T00:33:34.414Z,4.80
2019-02-21T00:36:02.817Z,4.80
2019-02-21T00:38:31.246Z,4.80
2019-02-21T00:40:59.646Z,4.70
2019-02-21T00:43:28.052Z,4.70
2019-02-21T00:45:56.473Z,4.60
2019-02-21T00:48:24.898Z,4.50
2019-02-21T00:50:53.306Z,4.50
2019-02-21T00:53:21.816Z,4.60
2019-02-21T00:55:50.222Z,4.60
2019-02-21T00:58:18.613Z,4.60
2019-02-21T01:00:47.071Z,4.60
2019-02-21T01:03:15.527Z,4.60
2019-02-21T01:05:43.954Z,4.60
2019-02-21T01:08:12.654Z,4.60
2019-02-21T01:10:41.056Z,4.60
2019-02-21T01:13:09.457Z,4.60
2019-02-21T01:15:37.886Z,4.60
2019-02-21T01:18:06.294Z,4.60
2019-02-21T01:20:34.787Z,4.60
2019-02-21T01:23:03.215Z,4.50
2019-02-21T01:25:31.787Z,4.50
2019-02-21T01:28:00.902Z,4.50
2019-02-21T01:30:29.309Z,4.50
2019-02-21T01:32:57.782Z,4.50
2019-02-21T01:35:26.206Z,4.50
2019-02-21T01:37:54.709Z,4.50
2019-02-21T01:40:23.138Z,4.50
2019-02-21T01:42:51.541Z,4.50
2019-02-21T01:45:19.959Z,4.50
2019-02-21T01:47:48.386Z,4.50
2019-02-21T01:50:16.798Z,4.50
2019-02-21T01:52:45.210Z,4.50
2019-02-21T01:55:13.631Z,4.40
2019-02-21T01:57:42.035Z,4.30
2019-02-21T02:00:12.551Z,4.40
2019-02-21T02:02:40.982Z,4.40
2019-02-21T02:05:09.558Z,4.40
2019-02-21T02:07:38.629Z,4.50
2019-02-21T02:10:09.098Z,4.50
2019-02-21T02:12:37.718Z,4.60
2019-02-21T02:15:08.455Z,4.70
2019-02-21T02:17:37.173Z,4.70
2019-02-21T02:20:17.547Z,4.80
2019-02-21T02:22:45.965Z,4.80
2019-02-21T02:25:14.373Z,4.90
2019-02-21T02:27:42.818Z,4.90
2019-02-21T02:30:11.283Z,5.00
2019-02-21T02:32:39.698Z,5.00
2019-02-21T02:35:08.322Z,5.00
2019-02-21T02:37:36.731Z,5.00
2019-02-21T02:40:06.069Z,5.00
2019-02-21T02:42:34.487Z,5.00
2019-02-21T02:45:02.951Z,5.10
2019-02-21T02:47:31.446Z,5.00
2019-02-21T02:49:59.845Z,5.10
2019-02-21T02:52:28.262Z,5.10
2019-02-21T02:54:56.667Z,5.10
2019-02-21T02:57:25.094Z,5.20
2019-02-21T02:59:53.493Z,5.20
2019-02-21T03:02:21.926Z,5.20
2019-02-21T03:04:50.360Z,5.20
2019-02-21T03:07:19.029Z,5.30
2019-02-21T03:09:47.467Z,5.30
2019-02-21T03:12:15.934Z,5.30
2019-02-21T03:14:44.369Z,5.40
2019-02-21T03:17:12.770Z,5.30
2019-02-21T03:19:41.169Z,5.30
2019-02-21T03:22:09.597Z,5.40
2019-02-21T03:24:38.012Z,5.40
2019-02-21T03:27:06.417Z,5.50
2019-02-21T03:29:34.829Z,5.40
2019-02-21T03:32:03.274Z,5.60
2019-02-21T03:34:31.678Z,5.50
2019-02-21T03:37:00.212Z,5.60
2019-02-21T03:39:28.614Z,5.50
2019-02-21T03:41:57.015Z,5.50
2019-02-21T03:44:25.482Z,5.60
2019-02-21T03:46:53.908Z,5.60
2019-02-21T03:49:22.313Z,5.60
2019-02-21T03:51:50.743Z,5.60
2019-02-21T03:54:19.193Z,5.60
2019-02-21T03:56:47.598Z,5.70
2019-02-21T03:59:16.091Z,5.70
2019-02-21T04:01:44.477Z,5.70
2019-02-21T04:04:12.884Z,5.80
2019-02-21T04:06:41.314Z,5.80
2019-02-21T04:09:09.711Z,5.80
2019-02-21T04:11:38.126Z,5.80
2019-02-21T04:14:06.637Z,5.70
2019-02-21T04:16:35.053Z,5.70
2019-02-21T04:19:03.482Z,5.70
2019-02-21T04:21:31.963Z,5.60
2019-02-21T04:24:00.360Z,5.60
2019-02-21T04:26:28.846Z,5.50
2019-02-21T04:28:57.253Z,5.60
2019-02-21T04:31:25.685Z,5.60
2019-02-21T04:33:54.085Z,5.60
2019-02-21T04:36:23.671Z,5.60
2019-02-21T04:38:52.281Z,5.60
2019-02-21T04:41:20.708Z,5.70
2019-02-21T04:43:49.107Z,5.60
2019-02-21T04:46:17.534Z,5.60
2019-02-21T04:48:45.955Z,5.60
2019-02-21T04:51:14.359Z,5.60
2019-02-21T04:53:42.777Z,5.60
2019-02-21T04:56:11.209Z,5.60
2019-02-21T04:58:39.736Z,5.60
2019-02-21T05:01:08.186Z,5.60
2019-02-21T05:03:36.602Z,5.60
2019-02-21T05:06:05.025Z,5.70
2019-02-21T05:08:33.436Z,5.70
2019-02-21T05:11:01.854Z,5.70
2019-02-21T05:13:30.416Z,5.70
2019-02-21T05:15:58.869Z,5.70
2019-02-21T05:18:27.292Z,5.70
2019-02-21T05:20:55.691Z,5.70
2019-02-21T05:23:24.124Z,5.70
2019-02-21T05:25:52.521Z,5.70
2019-02-21T05:28:28.261Z,5.60
2019-02-21T05:30:58.424Z,5.60
2019-02-21T05:33:43.911Z,5.60
2019-02-21T05:36:32.301Z,5.60
2019-02-21T05:39:18.606Z,5.50
2019-02-21T05:42:00.437Z,5.50
2019-02-21T05:44:33.407Z,5.50
2019-02-21T05:47:18.781Z,5.50
2019-02-21T05:49:55.024Z,5.50
2019-02-21T05:52:25.085Z,5.50
2019-02-21T05:54:55.135Z,5.40
2019-02-21T05:57:34.474Z,5.40
2019-02-21T06:00:14.408Z,5.40
2019-02-21T06:02:53.125Z,5.30
2019-02-21T06:05:21.730Z,5.30
2019-02-21T06:08:09.882Z,5.30
2019-02-21T06:10:39.918Z,5.30
2019-02-21T06:13:18.871Z,5.20
2019-02-21T06:16:04.205Z,5.20
2019-02-21T06:18:34.277Z,5.20
2019-02-21T06:21:04.324Z,5.20
2019-02-21T06:23:39.396Z,5.20
2019-02-21T06:26:09.053Z,5.20
2019-02-21T06:28:48.094Z,5.20
2019-02-21T06:31:16.510Z,5.20
2019-02-21T06:33:44.913Z,5.20
2019-02-21T06:36:13.338Z,5.30
2019-02-21T06:38:41.746Z,5.40
2019-02-21T06:41:10.232Z,5.40
2019-02-21T06:43:38.659Z,5.40
2019-02-21T06:46:07.070Z,5.40
2019-02-21T06:48:35.510Z,5.50
2019-02-21T06:51:03.905Z,5.60
2019-02-21T06:53:32.301Z,5.60
2019-02-21T06:56:00.869Z,5.70
2019-02-21T06:58:29.259Z,5.70
2019-02-21T07:00:57.662Z,5.70
2019-02-21T07:03:26.221Z,5.70
2019-02-21T07:05:54.699Z,5.80
2019-02-21T07:08:25.078Z,5.80
2019-02-21T07:10:53.324Z,5.80
2019-02-21T07:13:26.609Z,5.80
2019-02-21T07:15:51.872Z,5.80
2019-02-21T07:18:20.346Z,5.80
2019-02-21T07:20:48.754Z,5.80
2019-02-21T07:23:17.176Z,5.90
2019-02-21T07:25:47.153Z,5.90
2019-02-21T07:28:16.117Z,5.90
2019-02-21T07:30:45.038Z,6.00
2019-02-21T07:33:13.441Z,6.00
2019-02-21T07:35:41.910Z,6.00
2019-02-21T07:38:10.309Z,6.00
2019-02-21T07:40:38.709Z,6.00
2019-02-21T07:43:07.152Z,6.10
2019-02-21T07:45:36.515Z,6.10
2019-02-21T07:48:05.058Z,6.20
2019-02-21T07:50:33.485Z,6.20
2019-02-21T07:53:02.873Z,6.20
2019-02-21T07:55:31.605Z,6.20
2019-02-21T07:58:00.005Z,6.30
2019-02-21T08:00:28.410Z,6.30
2019-02-21T08:02:57.209Z,6.30
2019-02-21T08:05:25.609Z,6.30
2019-02-21T08:07:54.023Z,6.30
2019-02-21T08:10:32.789Z,6.30
2019-02-21T08:12:53.638Z,6.40
2019-02-21T08:15:22.178Z,6.40
2019-02-21T08:17:50.981Z,6.50
2019-02-21T08:20:19.392Z,6.60
2019-02-21T08:22:47.779Z,6.70
2019-02-21T08:25:18.993Z,6.80
2019-02-21T08:27:46.340Z,6.90
2019-02-21T08:30:15.601Z,7.00
2019-02-21T08:33:07.237Z,7.00
2019-02-21T08:35:35.650Z,7.10
2019-02-21T08:38:04.091Z,7.10
2019-02-21T08:40:32.662Z,7.10
2019-02-21T08:43:03.871Z,7.10
2019-02-21T08:45:31.195Z,7.20
2019-02-21T08:47:59.634Z,7.30
2019-02-21T08:50:28.031Z,7.30
2019-02-21T08:52:56.438Z,7.20
2019-02-21T08:55:25.009Z,7.20
2019-02-21T08:57:53.414Z,7.20
2019-02-21T09:00:21.808Z,7.30
2019-02-21T09:02:50.232Z,7.30
2019-02-21T09:05:18.745Z,7.30
2019-02-21T09:07:47.149Z,7.40
2019-02-21T09:10:15.733Z,7.40
2019-02-21T09:12:48.432Z,7.50
2019-02-21T09:15:17.527Z,7.50
2019-02-21T09:17:45.930Z,7.70
2019-02-21T09:20:14.360Z,7.80
2019-02-21T09:22:42.763Z,8.00
2019-02-21T09:25:12.850Z,8.20
2019-02-21T09:27:41.297Z,8.40
2019-02-21T09:30:14.990Z,8.50
2019-02-21T09:32:43.426Z,8.60
2019-02-21T09:35:12.019Z,8.60
2019-02-21T09:37:40.412Z,8.70
2019-02-21T09:40:11.084Z,8.80
2019-02-21T09:42:39.490Z,9.00
2019-02-21T09:45:10.710Z,9.10
2019-02-21T09:47:40.009Z,9.20
2019-02-21T09:50:09.758Z,9.30
2019-02-21T09:52:38.174Z,9.40
2019-02-21T09:55:09.843Z,9.50
2019-02-21T09:57:38.237Z,9.70
2019-02-21T10:00:10.662Z,9.90
2019-02-21T10:02:39.083Z,10.10
2019-02-21T10:05:08.132Z,10.30
2019-02-21T10:07:37.221Z,10.40
2019-02-21T10:10:09.393Z,10.40
2019-02-21T10:12:38.131Z,10.40
2019-02-21T10:15:09.991Z,10.50
2019-02-21T10:17:38.399Z,10.50
2019-02-21T10:20:10.165Z,10.50
2019-02-21T10:22:38.571Z,10.60
2019-02-21T10:25:13.374Z,10.70
2019-02-21T10:27:41.815Z,10.80
2019-02-21T10:30:13.542Z,10.80
2019-02-21T10:32:42.062Z,10.80
2019-02-21T10:35:10.626Z,10.80
2019-02-21T10:37:39.046Z,10.80
2019-02-21T10:40:10.092Z,10.80
2019-02-21T10:42:38.792Z,11.00
2019-02-21T10:45:15.085Z,11.20
2019-02-21T10:47:43.485Z,11.40
2019-02-21T10:50:19.530Z,11.60
2019-02-21T10:52:48.733Z,11.80
2019-02-21T10:55:18.713Z,11.80
2019-02-21T10:57:47.288Z,11.80
2019-02-21T11:00:29.483Z,11.70
2019-02-21T11:02:58.061Z,11.70
2019-02-21T11:05:26.498Z,11.50
2019-02-21T11:07:54.923Z,11.50
2019-02-21T11:10:30.476Z,11.40
2019-02-21T11:12:58.882Z,11.40
2019-02-21T11:15:27.398Z,11.60
2019-02-21T11:17:55.803Z,11.80
2019-02-21T11:20:24.408Z,12.20
2019-02-21T11:22:52.835Z,12.70
2019-02-21T11:25:21.245Z,13.30
2019-02-21T11:27:49.722Z,14.00
2019-02-21T11:30:19.605Z,14.50
2019-02-21T11:32:48.009Z,14.80
2019-02-21T11:35:16.690Z,14.90
2019-02-21T11:37:46.996Z,14.90
2019-02-21T11:40:16.855Z,14.80
2019-02-21T11:42:45.902Z,14.70
2019-02-21T11:45:19.171Z,14.50
2019-02-21T11:47:47.565Z,14.30
2019-02-21T11:50:17.911Z,14.20
2019-02-21T11:52:46.332Z,14.20
2019-02-21T11:55:17.623Z,14.10
2019-02-21T11:57:46.044Z,14.10
2019-02-21T12:00:19.313Z,14.10
2019-02-21T12:02:47.948Z,14.10
2019-02-21T12:05:19.504Z,14.20
2019-02-21T12:07:47.398Z,14.30
2019-02-21T12:10:15.970Z,14.40
2019-02-21T12:12:44.373Z,14.50
2019-02-21T12:15:14.021Z,14.70
2019-02-21T12:17:43.245Z,15.10
2019-02-21T12:20:14.466Z,15.40
2019-02-21T12:22:42.884Z,15.50
2019-02-21T12:25:13.766Z,15.30
2019-02-21T12:27:42.165Z,15.30
2019-02-21T12:30:15.700Z,15.40
2019-02-21T12:32:44.138Z,15.60
2019-02-21T12:35:12.613Z,15.80
2019-02-21T12:37:41.108Z,15.70
2019-02-21T12:40:15.660Z,15.50
2019-02-21T12:42:44.139Z,15.40
2019-02-21T12:45:15.088Z,15.20
2019-02-21T12:47:50.753Z,15.10
2019-02-21T12:50:14.246Z,14.90
2019-02-21T12:52:42.642Z,14.90
2019-02-21T12:55:12.091Z,15.10
2019-02-21T12:57:40.512Z,15.00
2019-02-21T13:00:22.172Z,14.90
2019-02-21T13:02:50.574Z,14.80
2019-02-21T13:05:19.072Z,14.90
2019-02-21T13:07:47.501Z,14.90
2019-02-21T13:10:23.897Z,14.90
2019-02-21T13:12:52.524Z,14.90
2019-02-21T13:15:20.966Z,14.90
2019-02-21T13:17:51.050Z,15.00
2019-02-21T13:20:19.501Z,15.00
2019-02-21T13:22:47.948Z,14.90
2019-02-21T13:25:17.886Z,14.90
2019-02-21T13:27:46.286Z,14.80
2019-02-21T13:30:16.192Z,14.70
2019-02-21T13:32:44.598Z,14.70
2019-02-21T13:35:13.283Z,14.70
2019-02-21T13:37:41.820Z,14.70
2019-02-21T13:40:12.394Z,14.70
2019-02-21T13:42:40.801Z,14.70
2019-02-21T13:45:10.890Z,14.70
2019-02-21T13:47:39.432Z,14.80
2019-02-21T13:50:10.684Z,15.30
2019-02-21T13:52:39.204Z,16.10
2019-02-21T13:55:08.177Z,17.00
2019-02-21T13:57:36.669Z,17.10
2019-02-21T14:00:17.167Z,17.00
2019-02-21T14:02:45.620Z,16.80
2019-02-21T14:05:14.197Z,16.40
2019-02-21T14:07:42.633Z,16.00
2019-02-21T14:10:12.998Z,15.80
2019-02-21T14:12:41.402Z,15.60
2019-02-21T14:15:13.030Z,15.50
2019-02-21T14:17:41.654Z,15.20
2019-02-21T14:20:10.198Z,15.10
2019-02-21T14:22:38.618Z,15.00
2019-02-21T14:25:09.818Z,14.90
2019-02-21T14:27:38.209Z,14.70
2019-02-21T14:30:13.257Z,14.60
2019-02-21T14:32:42.170Z,14.50
2019-02-21T14:35:12.123Z,14.40
2019-02-21T14:37:40.535Z,14.40
2019-02-21T14:40:13.521Z,14.30
2019-02-21T14:42:42.021Z,14.30
2019-02-21T14:45:18.705Z,14.20
2019-02-21T14:47:47.126Z,14.10
2019-02-21T14:50:15.528Z,14.10
2019-02-21T14:52:43.999Z,13.90
2019-02-21T14:55:14.509Z,13.90
2019-02-21T14:57:43.548Z,13.80
2019-02-21T15:00:22.929Z,13.70
2019-02-21T15:02:51.326Z,13.60
2019-02-21T15:05:20.221Z,13.50
2019-02-21T15:07:49.761Z,13.40
2019-02-21T15:10:18.206Z,13.30
2019-02-21T15:12:46.698Z,13.10
2019-02-21T15:15:17.391Z,13.00
2019-02-21T15:17:45.795Z,12.90
2019-02-21T15:20:15.842Z,12.80
2019-02-21T15:22:44.449Z,12.80
2019-02-21T15:25:12.848Z,12.70
2019-02-21T15:27:41.461Z,12.70
2019-02-21T15:30:13.174Z,12.80
2019-02-21T15:32:41.601Z,12.80
2019-02-21T15:35:10.371Z,12.80
2019-02-21T15:37:38.922Z,12.80
2019-02-21T15:40:09.526Z,12.80
2019-02-21T15:42:37.925Z,12.90
2019-02-21T15:45:09.794Z,12.90
2019-02-21T15:47:38.262Z,13.00
2019-02-21T15:50:10.626Z,13.00
2019-02-21T15:52:39.080Z,13.00
2019-02-21T15:55:12.686Z,13.10
2019-02-21T15:57:40.278Z,13.10
2019-02-21T16:00:12.058Z,13.10
2019-02-21T16:02:40.468Z,13.10
2019-02-21T16:05:09.359Z,13.10
2019-02-21T16:07:37.813Z,13.20
2019-02-21T16:10:09.640Z,13.10
2019-02-21T16:12:38.312Z,13.10
2019-02-21T16:15:10.439Z,13.00
2019-02-21T16:17:40.196Z,12.90
2019-02-21T16:20:12.042Z,12.90
2019-02-21T16:22:40.459Z,12.90
2019-02-21T16:25:11.911Z,12.80
2019-02-21T16:27:40.314Z,12.80
2019-02-21T16:30:12.561Z,12.70
2019-02-21T16:32:40.536Z,12.70
2019-02-21T16:35:13.657Z,12.80
2019-02-21T16:37:42.175Z,12.70
2019-02-21T16:40:17.917Z,12.80
2019-02-21T16:42:46.616Z,12.80
2019-02-21T16:45:16.971Z,12.80
2019-02-21T16:47:45.397Z,12.80
2019-02-21T16:50:14.805Z,12.80
2019-02-21T16:52:43.230Z,12.80
2019-02-21T16:55:14.277Z,12.70
2019-02-21T16:57:42.942Z,12.70
2019-02-21T17:00:16.321Z,12.70
2019-02-21T17:02:44.813Z,12.70
2019-02-21T17:05:14.085Z,12.70
2019-02-21T17:07:42.667Z,12.60
2019-02-21T17:10:13.518Z,12.60
2019-02-21T17:12:41.922Z,12.60
2019-02-21T17:15:14.945Z,12.50
2019-02-21T17:17:43.540Z,12.50
2019-02-21T17:20:19.148Z,12.50
2019-02-21T17:22:47.550Z,12.50
2019-02-21T17:25:16.891Z,12.50
2019-02-21T17:27:46.050Z,12.50
2019-02-21T17:30:16.407Z,12.40
2019-02-21T17:32:44.999Z,12.40
2019-02-21T17:35:13.875Z,12.40
2019-02-21T17:37:42.287Z,12.30
2019-02-21T17:40:19.558Z,12.30
2019-02-21T17:42:47.968Z,12.30
2019-02-21T17:45:16.394Z,12.20
2019-02-21T17:47:44.840Z,12.20
2019-02-21T17:50:15.479Z,12.20
2019-02-21T17:52:43.886Z,12.20
2019-02-21T17:55:12.554Z,12.20
2019-02-21T17:57:41.042Z,12.10
2019-02-21T18:00:31.290Z,12.10
2019-02-21T18:02:59.704Z,12.10
2019-02-21T18:05:28.140Z,12.00
2019-02-21T18:07:56.550Z,12.00
2019-02-21T18:10:24.994Z,12.00
2019-02-21T18:12:53.402Z,12.00
2019-02-21T18:15:21.806Z,12.00
2019-02-21T18:17:50.262Z,12.00
2019-02-21T18:20:18.669Z,12.00
2019-02-21T18:22:47.084Z,12.00
2019-02-21T18:25:30.685Z,11.90
2019-02-21T18:27:59.139Z,11.90
2019-02-21T18:30:27.561Z,11.90
2019-02-21T18:32:56.064Z,11.90
2019-02-21T18:35:24.553Z,11.90
2019-02-21T18:37:52.953Z,11.80
2019-02-21T18:40:26.291Z,11.80
2019-02-21T18:42:54.697Z,11.80
2019-02-21T18:45:23.143Z,11.80
2019-02-21T18:47:51.728Z,11.80
2019-02-21T18:50:20.162Z,11.70
2019-02-21T18:52:48.794Z,11.70
2019-02-21T18:55:17.219Z,11.70
2019-02-21T18:57:45.689Z,11.70
2019-02-21T19:00:20.126Z,11.70
2019-02-21T19:02:48.527Z,11.70
2019-02-21T19:05:16.950Z,11.70
2019-02-21T19:07:45.396Z,11.70
2019-02-21T19:10:16.538Z,11.70
2019-02-21T19:12:44.945Z,11.70
2019-02-21T19:15:14.327Z,11.70
2019-02-21T19:17:42.970Z,11.70
2019-02-21T19:20:15.589Z,11.70
2019-02-21T19:22:44.047Z,11.60
2019-02-21T19:25:13.447Z,11.60
2019-02-21T19:27:41.856Z,11.60
2019-02-21T19:30:31.517Z,11.60
2019-02-21T19:32:59.945Z,11.60
2019-02-21T19:35:28.396Z,11.50
2019-02-21T19:37:56.849Z,11.50
2019-02-21T19:40:25.257Z,11.40
2019-02-21T19:42:53.671Z,11.40
2019-02-21T19:45:22.120Z,11.40
2019-02-21T19:47:50.533Z,11.30
2019-02-21T19:50:18.933Z,11.40
2019-02-21T19:52:47.377Z,11.40
2019-02-21T19:55:15.905Z,11.40
2019-02-21T19:57:44.585Z,11.40
2019-02-21T20:00:26.731Z,11.40
2019-02-21T20:02:55.502Z,11.40
2019-02-21T20:05:24.148Z,11.40
2019-02-21T20:07:52.690Z,11.30
2019-02-21T20:10:21.171Z,11.30
2019-02-21T20:12:49.624Z,11.30
2019-02-21T20:15:18.301Z,11.30
2019-02-21T20:17:46.708Z,11.30
2019-02-21T20:20:20.964Z,11.30
2019-02-21T20:22:49.387Z,11.40
2019-02-21T20:25:17.867Z,11.40
2019-02-21T20:27:46.315Z,11.40
2019-02-21T20:30:17.442Z,11.40
2019-02-21T20:32:45.836Z,11.40
2019-02-21T20:35:14.763Z,11.40
2019-02-21T20:37:43.240Z,11.40
2019-02-21T20:40:12.517Z,11.40
2019-02-21T20:42:41.231Z,11.40
2019-02-21T20:45:13.625Z,11.40
2019-02-21T20:47:42.073Z,11.40
2019-02-21T20:50:12.824Z,11.40
2019-02-21T20:52:41.395Z,11.40
2019-02-21T20:55:12.473Z,11.40
2019-02-21T20:57:41.072Z,11.40
2019-02-21T21:00:14.645Z,11.40
2019-02-21T21:02:43.090Z,11.40
2019-02-21T21:05:11.774Z,11.50
2019-02-21T21:07:40.177Z,11.50
2019-02-21T21:10:14.323Z,11.50
2019-02-21T21:12:42.733Z,11.50
2019-02-21T21:15:13.177Z,11.60
2019-02-21T21:17:41.802Z,11.50
2019-02-21T21:20:16.988Z,11.50
2019-02-21T21:22:44.491Z,11.50
2019-02-21T21:25:15.815Z,11.50
2019-02-21T21:27:44.314Z,11.50
2019-02-21T21:30:15.341Z,11.50
2019-02-21T21:32:43.988Z,11.40
2019-02-21T21:35:12.928Z,11.40
2019-02-21T21:37:41.328Z,11.50
2019-02-21T21:40:15.414Z,11.50
2019-02-21T21:42:43.864Z,11.40
2019-02-21T21:45:14.816Z,11.40
2019-02-21T21:47:43.251Z,11.40
2019-02-21T21:50:14.743Z,11.40
2019-02-21T21:52:43.240Z,11.40
2019-02-21T21:55:11.699Z,11.40
2019-02-21T21:57:40.099Z,11.30
2019-02-21T22:00:14.653Z,11.30
2019-02-21T22:02:43.206Z,11.30
2019-02-21T22:05:11.780Z,11.20
2019-02-21T22:07:40.202Z,11.10
2019-02-21T22:10:11.697Z,11.10
2019-02-21T22:12:40.164Z,11.10
2019-02-21T22:15:11.332Z,11.10
2019-02-21T22:17:42.101Z,11.10
2019-02-21T22:20:10.024Z,11.10
2019-02-21T22:22:38.453Z,11.10
2019-02-21T22:25:10.322Z,11.10
2019-02-21T22:27:38.761Z,11.10
2019-02-21T22:30:13.599Z,11.10
2019-02-21T22:32:42.026Z,11.10
2019-02-21T22:35:10.501Z,11.20
2019-02-21T22:37:39.151Z,11.20
2019-02-21T22:40:12.714Z,11.20
2019-02-21T22:42:41.145Z,11.30
2019-02-21T22:45:10.480Z,11.30
2019-02-21T22:47:38.890Z,11.20
2019-02-21T22:50:15.441Z,11.20
2019-02-21T22:52:43.874Z,11.20
2019-02-21T22:55:12.313Z,11.20
2019-02-21T22:57:40.764Z,11.20
2019-02-21T23:00:36.692Z,11.20
2019-02-21T23:03:08.101Z,11.20
2019-02-21T23:06:02.397Z,11.20
2019-02-21T23:08:42.894Z,11.10
2019-02-21T23:11:11.442Z,11.10
2019-02-21T23:13:39.994Z,11.00
2019-02-21T23:16:08.403Z,10.90
2019-02-21T23:18:36.973Z,10.90
2019-02-21T23:21:05.556Z,10.90
2019-02-21T23:23:33.957Z,10.80
2019-02-21T23:26:02.392Z,10.80
2019-02-21T23:28:30.806Z,10.80
2019-02-21T23:30:59.257Z,10.70
2019-02-21T23:33:28.266Z,10.70
2019-02-21T23:35:56.678Z,10.80
2019-02-21T23:38:25.082Z,10.70
2019-02-21T23:40:53.509Z,10.70
2019-02-21T23:43:21.916Z,10.70
2019-02-21T23:45:50.366Z,10.60
2019-02-21T23:48:18.951Z,10.60
2019-02-21T23:50:47.349Z,10.60
2019-02-21T23:53:15.866Z,10.50
2019-02-21T23:55:44.282Z,10.60
2019-02-21T23:58:12.690Z,10.60
